Terminal Aerodrome Forecast
Issued by NWS

Home | Current Version | Previous Version | Text Only | Print | Product List | Glossary On
Versions: 1 2 3 4 5 6 7 8 9 10 11 12 13 14
344
FTUS43 KGRB 162335
TAFMTW
TAF
KMTW 162335Z 1700/1724 14008KT P6SM -SHSN BKN090
     FM170300 14006KT P6SM BKN200
     FM171400 18008KT P6SM SCT250=

USA.gov is the U.S. government's official web portal to all federal, state and local government web resources and services.